sensor_id;sensor_type;location;lat;lon;timestamp;P1;durP1;ratioP1;P2;durP2;ratioP2
31872;SDS011;22407;42.820;23.374;2023-08-07T00:02:23;5.63;;;2.30;;
31872;SDS011;22407;42.820;23.374;2023-08-07T00:04:48;5.70;;;2.17;;
31872;SDS011;22407;42.820;23.374;2023-08-07T00:07:13;6.38;;;2.50;;
31872;SDS011;22407;42.820;23.374;2023-08-07T00:09:39;5.70;;;2.67;;
31872;SDS011;22407;42.820;23.374;2023-08-07T00:12:04;6.73;;;2.80;;
31872;SDS011;22407;42.820;23.374;2023-08-07T00:14:29;7.13;;;3.20;;
31872;SDS011;22407;42.820;23.374;2023-08-07T00:16:55;6.60;;;3.10;;
31872;SDS011;22407;42.820;23.374;2023-08-07T00:19:20;7.35;;;2.83;;
31872;SDS011;22407;42.820;23.374;2023-08-07T00:21:45;7.83;;;2.90;;
31872;SDS011;22407;42.820;23.374;2023-08-07T00:24:10;6.77;;;3.20;;
31872;SDS011;22407;42.820;23.374;2023-08-07T00:26:36;7.97;;;3.47;;
31872;SDS011;22407;42.820;23.374;2023-08-07T00:29:01;7.53;;;3.80;;
31872;SDS011;22407;42.820;23.374;2023-08-07T00:31:26;7.67;;;3.80;;
31872;SDS011;22407;42.820;23.374;2023-08-07T00:33:55;7.75;;;3.60;;
31872;SDS011;22407;42.820;23.374;2023-08-07T00:36:21;7.40;;;3.80;;
31872;SDS011;22407;42.820;23.374;2023-08-07T00:38:46;8.27;;;3.80;;
31872;SDS011;22407;42.820;23.374;2023-08-07T00:41:11;7.97;;;4.00;;
31872;SDS011;22407;42.820;23.374;2023-08-07T00:43:37;7.80;;;3.67;;
31872;SDS011;22407;42.820;23.374;2023-08-07T00:46:02;8.00;;;3.90;;
31872;SDS011;22407;42.820;23.374;2023-08-07T00:48:27;8.07;;;4.00;;
31872;SDS011;22407;42.820;23.374;2023-08-07T00:50:53;8.43;;;4.00;;
31872;SDS011;22407;42.820;23.374;2023-08-07T00:53:19;8.13;;;4.20;;
31872;SDS011;22407;42.820;23.374;2023-08-07T00:55:44;8.82;;;4.28;;
31872;SDS011;22407;42.820;23.374;2023-08-07T00:58:10;9.60;;;4.20;;
31872;SDS011;22407;42.820;23.374;2023-08-07T01:00:35;8.18;;;3.83;;
31872;SDS011;22407;42.820;23.374;2023-08-07T01:03:00;7.50;;;4.00;;
31872;SDS011;22407;42.820;23.374;2023-08-07T01:05:26;8.17;;;3.90;;
31872;SDS011;22407;42.820;23.374;2023-08-07T01:07:52;8.20;;;4.00;;
31872;SDS011;22407;42.820;23.374;2023-08-07T01:10:19;7.93;;;3.97;;
31872;SDS011;22407;42.820;23.374;2023-08-07T01:12:48;7.90;;;3.90;;
31872;SDS011;22407;42.820;23.374;2023-08-07T01:15:29;7.70;;;4.13;;
31872;SDS011;22407;42.820;23.374;2023-08-07T01:17:55;7.43;;;4.07;;
31872;SDS011;22407;42.820;23.374;2023-08-07T01:20:21;8.73;;;4.30;;
31872;SDS011;22407;42.820;23.374;2023-08-07T01:22:46;8.20;;;4.43;;
31872;SDS011;22407;42.820;23.374;2023-08-07T01:25:11;8.97;;;4.60;;
31872;SDS011;22407;42.820;23.374;2023-08-07T01:27:42;8.65;;;4.80;;
31872;SDS011;22407;42.820;23.374;2023-08-07T01:30:22;9.20;;;4.95;;
31872;SDS011;22407;42.820;23.374;2023-08-07T01:35:22;8.65;;;4.57;;
31872;SDS011;22407;42.820;23.374;2023-08-07T01:37:51;9.52;;;5.03;;
31872;SDS011;22407;42.820;23.374;2023-08-07T01:40:16;9.97;;;4.90;;
31872;SDS011;22407;42.820;23.374;2023-08-07T01:42:42;9.98;;;5.20;;
31872;SDS011;22407;42.820;23.374;2023-08-07T01:45:08;9.73;;;5.60;;
31872;SDS011;22407;42.820;23.374;2023-08-07T01:47:34;11.43;;;5.40;;
31872;SDS011;22407;42.820;23.374;2023-08-07T01:49:59;10.13;;;5.72;;
31872;SDS011;22407;42.820;23.374;2023-08-07T01:52:25;11.87;;;5.47;;
31872;SDS011;22407;42.820;23.374;2023-08-07T01:54:50;10.03;;;5.50;;
31872;SDS011;22407;42.820;23.374;2023-08-07T01:57:15;9.37;;;5.27;;
31872;SDS011;22407;42.820;23.374;2023-08-07T01:59:41;9.53;;;4.90;;
31872;SDS011;22407;42.820;23.374;2023-08-07T02:02:06;9.33;;;5.17;;
31872;SDS011;22407;42.820;23.374;2023-08-07T02:04:31;10.70;;;5.30;;
31872;SDS011;22407;42.820;23.374;2023-08-07T02:06:57;9.27;;;5.17;;
31872;SDS011;22407;42.820;23.374;2023-08-07T02:09:22;9.90;;;5.63;;
31872;SDS011;22407;42.820;23.374;2023-08-07T02:11:47;9.13;;;5.13;;
31872;SDS011;22407;42.820;23.374;2023-08-07T02:14:13;9.83;;;5.70;;
31872;SDS011;22407;42.820;23.374;2023-08-07T02:16:38;9.50;;;5.50;;
31872;SDS011;22407;42.820;23.374;2023-08-07T02:19:03;9.83;;;5.40;;
31872;SDS011;22407;42.820;23.374;2023-08-07T02:21:28;9.57;;;5.57;;
31872;SDS011;22407;42.820;23.374;2023-08-07T02:23:54;10.83;;;5.70;;
31872;SDS011;22407;42.820;23.374;2023-08-07T02:26:19;11.55;;;6.00;;
31872;SDS011;22407;42.820;23.374;2023-08-07T02:28:44;11.17;;;5.50;;
31872;SDS011;22407;42.820;23.374;2023-08-07T02:31:10;10.07;;;5.47;;
31872;SDS011;22407;42.820;23.374;2023-08-07T02:33:35;9.63;;;5.43;;
31872;SDS011;22407;42.820;23.374;2023-08-07T02:36:00;10.83;;;5.90;;
31872;SDS011;22407;42.820;23.374;2023-08-07T02:38:26;9.68;;;5.60;;
31872;SDS011;22407;42.820;23.374;2023-08-07T02:40:51;10.90;;;5.93;;
31872;SDS011;22407;42.820;23.374;2023-08-07T02:43:16;11.20;;;6.20;;
31872;SDS011;22407;42.820;23.374;2023-08-07T02:45:41;10.17;;;5.80;;
31872;SDS011;22407;42.820;23.374;2023-08-07T02:48:07;10.53;;;5.77;;
31872;SDS011;22407;42.820;23.374;2023-08-07T02:50:32;9.50;;;5.40;;
31872;SDS011;22407;42.820;23.374;2023-08-07T02:52:58;9.70;;;5.57;;
31872;SDS011;22407;42.820;23.374;2023-08-07T02:55:23;11.27;;;5.85;;
31872;SDS011;22407;42.820;23.374;2023-08-07T02:57:48;9.90;;;5.70;;
31872;SDS011;22407;42.820;23.374;2023-08-07T03:00:14;9.90;;;5.60;;
31872;SDS011;22407;42.820;23.374;2023-08-07T03:02:39;9.70;;;5.23;;
31872;SDS011;22407;42.820;23.374;2023-08-07T03:05:04;10.53;;;5.30;;
31872;SDS011;22407;42.820;23.374;2023-08-07T03:07:30;9.30;;;5.30;;
31872;SDS011;22407;42.820;23.374;2023-08-07T03:09:55;9.93;;;5.60;;
31872;SDS011;22407;42.820;23.374;2023-08-07T03:12:20;10.80;;;5.60;;
31872;SDS011;22407;42.820;23.374;2023-08-07T03:14:46;10.05;;;5.50;;
31872;SDS011;22407;42.820;23.374;2023-08-07T03:17:11;9.60;;;5.20;;
31872;SDS011;22407;42.820;23.374;2023-08-07T03:19:36;10.37;;;5.53;;
31872;SDS011;22407;42.820;23.374;2023-08-07T03:22:02;10.55;;;5.20;;
31872;SDS011;22407;42.820;23.374;2023-08-07T03:24:27;9.20;;;5.10;;
31872;SDS011;22407;42.820;23.374;2023-08-07T03:26:53;9.93;;;5.33;;
31872;SDS011;22407;42.820;23.374;2023-08-07T03:29:18;10.87;;;5.50;;
31872;SDS011;22407;42.820;23.374;2023-08-07T03:31:43;10.20;;;5.50;;
31872;SDS011;22407;42.820;23.374;2023-08-07T03:34:08;11.00;;;5.43;;
31872;SDS011;22407;42.820;23.374;2023-08-07T03:36:34;10.77;;;5.80;;
31872;SDS011;22407;42.820;23.374;2023-08-07T03:38:59;10.07;;;5.33;;
31872;SDS011;22407;42.820;23.374;2023-08-07T03:41:24;10.35;;;5.85;;
31872;SDS011;22407;42.820;23.374;2023-08-07T03:43:50;11.63;;;6.20;;
31872;SDS011;22407;42.820;23.374;2023-08-07T03:46:15;12.83;;;6.30;;
31872;SDS011;22407;42.820;23.374;2023-08-07T03:48:40;10.50;;;5.20;;
31872;SDS011;22407;42.820;23.374;2023-08-07T03:51:06;11.00;;;5.57;;
31872;SDS011;22407;42.820;23.374;2023-08-07T03:53:33;10.50;;;5.70;;
31872;SDS011;22407;42.820;23.374;2023-08-07T03:55:58;10.93;;;6.13;;
31872;SDS011;22407;42.820;23.374;2023-08-07T03:58:23;11.30;;;5.83;;
31872;SDS011;22407;42.820;23.374;2023-08-07T04:00:50;10.53;;;5.97;;
31872;SDS011;22407;42.820;23.374;2023-08-07T04:03:15;10.60;;;5.80;;
31872;SDS011;22407;42.820;23.374;2023-08-07T04:05:40;11.67;;;6.23;;
31872;SDS011;22407;42.820;23.374;2023-08-07T04:08:06;11.90;;;6.60;;
31872;SDS011;22407;42.820;23.374;2023-08-07T04:10:31;14.23;;;6.73;;
31872;SDS011;22407;42.820;23.374;2023-08-07T04:12:56;12.73;;;6.50;;
31872;SDS011;22407;42.820;23.374;2023-08-07T04:15:22;13.30;;;6.53;;
31872;SDS011;22407;42.820;23.374;2023-08-07T04:17:47;13.73;;;6.20;;
31872;SDS011;22407;42.820;23.374;2023-08-07T04:20:12;11.30;;;6.27;;
31872;SDS011;22407;42.820;23.374;2023-08-07T04:22:37;11.20;;;5.73;;
31872;SDS011;22407;42.820;23.374;2023-08-07T04:25:03;10.17;;;5.67;;
31872;SDS011;22407;42.820;23.374;2023-08-07T04:27:28;12.23;;;5.80;;
31872;SDS011;22407;42.820;23.374;2023-08-07T04:29:53;10.10;;;5.77;;
31872;SDS011;22407;42.820;23.374;2023-08-07T04:32:19;10.47;;;5.40;;
31872;SDS011;22407;42.820;23.374;2023-08-07T04:34:44;10.00;;;5.90;;
31872;SDS011;22407;42.820;23.374;2023-08-07T04:37:09;10.90;;;5.90;;
31872;SDS011;22407;42.820;23.374;2023-08-07T04:39:35;10.67;;;6.30;;
31872;SDS011;22407;42.820;23.374;2023-08-07T04:42:01;12.93;;;6.63;;
31872;SDS011;22407;42.820;23.374;2023-08-07T04:44:26;11.90;;;6.30;;
31872;SDS011;22407;42.820;23.374;2023-08-07T04:46:53;13.57;;;7.18;;
31872;SDS011;22407;42.820;23.374;2023-08-07T04:49:18;11.77;;;6.33;;
31872;SDS011;22407;42.820;23.374;2023-08-07T04:51:44;16.02;;;6.90;;
31872;SDS011;22407;42.820;23.374;2023-08-07T04:54:09;12.60;;;6.13;;
31872;SDS011;22407;42.820;23.374;2023-08-07T04:56:34;12.33;;;6.20;;
31872;SDS011;22407;42.820;23.374;2023-08-07T04:58:59;12.43;;;5.83;;
31872;SDS011;22407;42.820;23.374;2023-08-07T05:01:26;12.63;;;6.05;;
31872;SDS011;22407;42.820;23.374;2023-08-07T05:03:52;23.03;;;10.20;;
31872;SDS011;22407;42.820;23.374;2023-08-07T05:06:17;10.40;;;5.50;;
31872;SDS011;22407;42.820;23.374;2023-08-07T05:08:42;11.15;;;4.85;;
31872;SDS011;22407;42.820;23.374;2023-08-07T05:11:07;10.87;;;4.87;;
31872;SDS011;22407;42.820;23.374;2023-08-07T05:13:33;8.80;;;5.00;;
31872;SDS011;22407;42.820;23.374;2023-08-07T05:15:58;11.27;;;5.33;;
31872;SDS011;22407;42.820;23.374;2023-08-07T05:18:23;10.27;;;5.20;;
31872;SDS011;22407;42.820;23.374;2023-08-07T05:20:48;8.83;;;4.63;;
31872;SDS011;22407;42.820;23.374;2023-08-07T05:23:14;8.77;;;4.23;;
31872;SDS011;22407;42.820;23.374;2023-08-07T05:25:39;7.97;;;4.20;;
31872;SDS011;22407;42.820;23.374;2023-08-07T05:28:04;9.33;;;4.30;;
31872;SDS011;22407;42.820;23.374;2023-08-07T05:30:30;7.82;;;4.10;;
31872;SDS011;22407;42.820;23.374;2023-08-07T05:32:55;8.00;;;4.00;;
31872;SDS011;22407;42.820;23.374;2023-08-07T05:35:21;9.17;;;4.17;;
31872;SDS011;22407;42.820;23.374;2023-08-07T05:37:46;9.60;;;4.47;;
31872;SDS011;22407;42.820;23.374;2023-08-07T05:40:11;8.23;;;4.00;;
31872;SDS011;22407;42.820;23.374;2023-08-07T05:42:37;7.73;;;3.53;;
31872;SDS011;22407;42.820;23.374;2023-08-07T05:45:02;8.60;;;4.00;;
31872;SDS011;22407;42.820;23.374;2023-08-07T05:47:28;8.10;;;4.20;;
31872;SDS011;22407;42.820;23.374;2023-08-07T05:49:54;10.70;;;5.30;;
31872;SDS011;22407;42.820;23.374;2023-08-07T05:52:19;8.83;;;4.20;;
31872;SDS011;22407;42.820;23.374;2023-08-07T05:54:44;8.70;;;4.03;;
31872;SDS011;22407;42.820;23.374;2023-08-07T05:57:10;7.37;;;3.90;;
31872;SDS011;22407;42.820;23.374;2023-08-07T05:59:35;8.50;;;4.10;;
31872;SDS011;22407;42.820;23.374;2023-08-07T06:02:02;8.88;;;3.45;;
31872;SDS011;22407;42.820;23.374;2023-08-07T06:04:27;9.52;;;3.72;;
31872;SDS011;22407;42.820;23.374;2023-08-07T06:06:53;8.07;;;3.57;;
31872;SDS011;22407;42.820;23.374;2023-08-07T06:09:18;7.33;;;3.73;;
31872;SDS011;22407;42.820;23.374;2023-08-07T06:11:43;7.33;;;3.57;;
31872;SDS011;22407;42.820;23.374;2023-08-07T06:14:09;6.90;;;3.30;;
31872;SDS011;22407;42.820;23.374;2023-08-07T06:16:34;6.40;;;2.90;;
31872;SDS011;22407;42.820;23.374;2023-08-07T06:18:59;7.70;;;3.33;;
31872;SDS011;22407;42.820;23.374;2023-08-07T06:21:24;6.70;;;3.30;;
31872;SDS011;22407;42.820;23.374;2023-08-07T06:23:50;8.73;;;3.33;;
31872;SDS011;22407;42.820;23.374;2023-08-07T06:26:15;6.95;;;3.38;;
31872;SDS011;22407;42.820;23.374;2023-08-07T06:28:41;7.47;;;3.33;;
31872;SDS011;22407;42.820;23.374;2023-08-07T06:31:07;7.60;;;3.53;;
31872;SDS011;22407;42.820;23.374;2023-08-07T06:33:33;6.45;;;3.20;;
31872;SDS011;22407;42.820;23.374;2023-08-07T06:35:58;8.87;;;3.40;;
31872;SDS011;22407;42.820;23.374;2023-08-07T06:38:23;7.18;;;3.30;;
31872;SDS011;22407;42.820;23.374;2023-08-07T06:40:49;7.70;;;3.40;;
31872;SDS011;22407;42.820;23.374;2023-08-07T06:43:14;7.47;;;3.17;;
31872;SDS011;22407;42.820;23.374;2023-08-07T06:45:39;7.13;;;2.90;;
31872;SDS011;22407;42.820;23.374;2023-08-07T06:48:04;6.20;;;3.10;;
31872;SDS011;22407;42.820;23.374;2023-08-07T06:50:30;6.40;;;2.90;;
31872;SDS011;22407;42.820;23.374;2023-08-07T06:52:55;5.97;;;3.00;;
31872;SDS011;22407;42.820;23.374;2023-08-07T06:55:21;7.07;;;2.80;;
31872;SDS011;22407;42.820;23.374;2023-08-07T06:57:46;7.13;;;2.90;;
31872;SDS011;22407;42.820;23.374;2023-08-07T07:00:12;8.30;;;3.20;;
31872;SDS011;22407;42.820;23.374;2023-08-07T07:02:37;7.23;;;3.07;;
31872;SDS011;22407;42.820;23.374;2023-08-07T07:05:02;6.40;;;2.73;;
31872;SDS011;22407;42.820;23.374;2023-08-07T07:07:28;6.27;;;2.83;;
31872;SDS011;22407;42.820;23.374;2023-08-07T07:09:53;6.67;;;2.80;;
31872;SDS011;22407;42.820;23.374;2023-08-07T07:12:18;5.53;;;2.80;;
31872;SDS011;22407;42.820;23.374;2023-08-07T07:14:44;5.90;;;2.60;;
31872;SDS011;22407;42.820;23.374;2023-08-07T07:17:09;6.07;;;2.90;;
31872;SDS011;22407;42.820;23.374;2023-08-07T07:19:34;7.73;;;3.17;;
31872;SDS011;22407;42.820;23.374;2023-08-07T07:21:59;6.63;;;2.93;;
31872;SDS011;22407;42.820;23.374;2023-08-07T07:24:25;5.93;;;2.60;;
31872;SDS011;22407;42.820;23.374;2023-08-07T07:26:50;5.50;;;2.77;;
31872;SDS011;22407;42.820;23.374;2023-08-07T07:29:16;5.90;;;2.80;;
31872;SDS011;22407;42.820;23.374;2023-08-07T07:31:41;5.50;;;2.60;;
31872;SDS011;22407;42.820;23.374;2023-08-07T07:34:07;5.50;;;2.40;;
31872;SDS011;22407;42.820;23.374;2023-08-07T07:36:32;6.80;;;2.80;;
31872;SDS011;22407;42.820;23.374;2023-08-07T07:38:57;6.37;;;2.80;;
31872;SDS011;22407;42.820;23.374;2023-08-07T07:41:23;5.80;;;2.50;;
31872;SDS011;22407;42.820;23.374;2023-08-07T07:43:49;5.97;;;2.47;;
31872;SDS011;22407;42.820;23.374;2023-08-07T07:46:14;6.33;;;2.63;;
31872;SDS011;22407;42.820;23.374;2023-08-07T07:48:39;5.95;;;2.70;;
31872;SDS011;22407;42.820;23.374;2023-08-07T07:51:05;7.90;;;2.70;;
31872;SDS011;22407;42.820;23.374;2023-08-07T07:53:30;5.80;;;2.60;;
31872;SDS011;22407;42.820;23.374;2023-08-07T07:55:56;6.20;;;2.50;;
31872;SDS011;22407;42.820;23.374;2023-08-07T07:58:21;5.80;;;2.50;;
31872;SDS011;22407;42.820;23.374;2023-08-07T08:00:46;6.10;;;2.33;;
31872;SDS011;22407;42.820;23.374;2023-08-07T08:03:12;6.27;;;2.20;;
31872;SDS011;22407;42.820;23.374;2023-08-07T08:05:37;7.03;;;2.63;;
31872;SDS011;22407;42.820;23.374;2023-08-07T08:08:03;5.75;;;2.40;;
31872;SDS011;22407;42.820;23.374;2023-08-07T08:10:28;6.20;;;2.50;;
31872;SDS011;22407;42.820;23.374;2023-08-07T08:12:56;6.80;;;2.47;;
31872;SDS011;22407;42.820;23.374;2023-08-07T08:15:22;5.60;;;2.30;;
31872;SDS011;22407;42.820;23.374;2023-08-07T08:17:47;6.27;;;2.37;;
31872;SDS011;22407;42.820;23.374;2023-08-07T08:20:13;5.57;;;2.40;;
31872;SDS011;22407;42.820;23.374;2023-08-07T08:22:45;5.97;;;2.30;;
31872;SDS011;22407;42.820;23.374;2023-08-07T08:25:11;6.80;;;2.50;;
31872;SDS011;22407;42.820;23.374;2023-08-07T08:27:39;8.20;;;3.67;;
31872;SDS011;22407;42.820;23.374;2023-08-07T08:30:05;6.93;;;2.53;;
31872;SDS011;22407;42.820;23.374;2023-08-07T08:32:30;6.83;;;2.37;;
31872;SDS011;22407;42.820;23.374;2023-08-07T08:34:55;5.50;;;2.20;;
31872;SDS011;22407;42.820;23.374;2023-08-07T08:37:21;5.90;;;2.43;;
31872;SDS011;22407;42.820;23.374;2023-08-07T08:39:46;6.77;;;2.17;;
31872;SDS011;22407;42.820;23.374;2023-08-07T08:42:11;6.50;;;2.28;;
31872;SDS011;22407;42.820;23.374;2023-08-07T08:44:40;5.60;;;2.10;;
31872;SDS011;22407;42.820;23.374;2023-08-07T08:47:06;5.50;;;2.10;;
31872;SDS011;22407;42.820;23.374;2023-08-07T08:49:33;5.40;;;2.10;;
31872;SDS011;22407;42.820;23.374;2023-08-07T08:52:00;4.90;;;2.03;;
31872;SDS011;22407;42.820;23.374;2023-08-07T08:54:25;5.60;;;2.00;;
31872;SDS011;22407;42.820;23.374;2023-08-07T08:56:51;4.67;;;1.80;;
31872;SDS011;22407;42.820;23.374;2023-08-07T08:59:17;5.23;;;2.00;;
31872;SDS011;22407;42.820;23.374;2023-08-07T09:01:44;5.50;;;2.05;;
31872;SDS011;22407;42.820;23.374;2023-08-07T09:04:09;4.80;;;1.80;;
31872;SDS011;22407;42.820;23.374;2023-08-07T09:06:35;5.00;;;1.80;;
31872;SDS011;22407;42.820;23.374;2023-08-07T09:09:00;4.53;;;1.73;;
31872;SDS011;22407;42.820;23.374;2023-08-07T09:11:26;5.60;;;1.67;;
31872;SDS011;22407;42.820;23.374;2023-08-07T09:13:53;4.70;;;1.60;;
31872;SDS011;22407;42.820;23.374;2023-08-07T09:16:19;4.80;;;1.80;;
31872;SDS011;22407;42.820;23.374;2023-08-07T09:18:44;5.20;;;2.00;;
31872;SDS011;22407;42.820;23.374;2023-08-07T09:21:10;5.10;;;1.83;;
31872;SDS011;22407;42.820;23.374;2023-08-07T09:23:36;4.85;;;1.63;;
31872;SDS011;22407;42.820;23.374;2023-08-07T09:26:02;5.27;;;1.80;;
31872;SDS011;22407;42.820;23.374;2023-08-07T09:28:31;5.90;;;1.87;;
31872;SDS011;22407;42.820;23.374;2023-08-07T09:30:57;4.65;;;1.70;;
31872;SDS011;22407;42.820;23.374;2023-08-07T09:33:26;4.90;;;1.70;;
31872;SDS011;22407;42.820;23.374;2023-08-07T09:35:52;5.13;;;1.50;;
31872;SDS011;22407;42.820;23.374;2023-08-07T09:38:17;5.43;;;1.52;;
31872;SDS011;22407;42.820;23.374;2023-08-07T09:40:42;4.50;;;1.50;;
31872;SDS011;22407;42.820;23.374;2023-08-07T09:43:08;4.73;;;1.60;;
31872;SDS011;22407;42.820;23.374;2023-08-07T09:45:33;4.83;;;1.47;;
31872;SDS011;22407;42.820;23.374;2023-08-07T09:48:05;4.80;;;1.50;;
31872;SDS011;22407;42.820;23.374;2023-08-07T09:50:33;4.80;;;1.50;;
31872;SDS011;22407;42.820;23.374;2023-08-07T09:52:58;5.47;;;1.60;;
31872;SDS011;22407;42.820;23.374;2023-08-07T09:55:24;4.70;;;1.60;;
31872;SDS011;22407;42.820;23.374;2023-08-07T09:57:50;5.43;;;1.50;;
31872;SDS011;22407;42.820;23.374;2023-08-07T10:00:15;5.17;;;1.60;;
31872;SDS011;22407;42.820;23.374;2023-08-07T10:02:41;5.17;;;1.40;;
31872;SDS011;22407;42.820;23.374;2023-08-07T10:05:07;6.40;;;1.60;;
31872;SDS011;22407;42.820;23.374;2023-08-07T10:07:34;5.43;;;1.33;;
31872;SDS011;22407;42.820;23.374;2023-08-07T10:09:59;5.13;;;1.40;;
31872;SDS011;22407;42.820;23.374;2023-08-07T10:12:28;4.78;;;1.48;;
31872;SDS011;22407;42.820;23.374;2023-08-07T10:14:53;4.80;;;1.40;;
31872;SDS011;22407;42.820;23.374;2023-08-07T10:17:20;6.60;;;1.60;;
31872;SDS011;22407;42.820;23.374;2023-08-07T10:19:46;5.60;;;1.30;;
31872;SDS011;22407;42.820;23.374;2023-08-07T10:22:11;4.50;;;1.30;;
31872;SDS011;22407;42.820;23.374;2023-08-07T10:24:37;4.55;;;1.25;;
31872;SDS011;22407;42.820;23.374;2023-08-07T10:27:04;4.67;;;1.40;;
31872;SDS011;22407;42.820;23.374;2023-08-07T10:29:30;5.17;;;1.30;;
31872;SDS011;22407;42.820;23.374;2023-08-07T10:31:56;5.28;;;1.27;;
31872;SDS011;22407;42.820;23.374;2023-08-07T10:34:22;4.43;;;1.23;;
31872;SDS011;22407;42.820;23.374;2023-08-07T10:36:47;4.20;;;1.30;;
31872;SDS011;22407;42.820;23.374;2023-08-07T10:39:12;4.87;;;1.30;;
31872;SDS011;22407;42.820;23.374;2023-08-07T10:41:41;4.68;;;1.27;;
31872;SDS011;22407;42.820;23.374;2023-08-07T10:44:16;4.10;;;1.20;;
31872;SDS011;22407;42.820;23.374;2023-08-07T10:46:49;5.15;;;1.50;;
31872;SDS011;22407;42.820;23.374;2023-08-07T10:49:30;4.78;;;1.30;;
31872;SDS011;22407;42.820;23.374;2023-08-07T10:52:01;4.23;;;1.20;;
31872;SDS011;22407;42.820;23.374;2023-08-07T10:54:27;4.67;;;1.30;;
31872;SDS011;22407;42.820;23.374;2023-08-07T10:56:52;4.30;;;1.30;;
31872;SDS011;22407;42.820;23.374;2023-08-07T10:59:18;4.50;;;1.20;;
31872;SDS011;22407;42.820;23.374;2023-08-07T11:01:43;4.20;;;1.27;;
31872;SDS011;22407;42.820;23.374;2023-08-07T11:04:15;4.85;;;1.30;;
31872;SDS011;22407;42.820;23.374;2023-08-07T11:06:41;4.40;;;1.23;;
31872;SDS011;22407;42.820;23.374;2023-08-07T11:09:07;4.47;;;1.20;;
31872;SDS011;22407;42.820;23.374;2023-08-07T11:11:37;5.00;;;1.38;;
31872;SDS011;22407;42.820;23.374;2023-08-07T11:14:05;5.15;;;1.35;;
31872;SDS011;22407;42.820;23.374;2023-08-07T11:16:31;4.55;;;1.40;;
31872;SDS011;22407;42.820;23.374;2023-08-07T11:18:57;4.63;;;1.48;;
31872;SDS011;22407;42.820;23.374;2023-08-07T11:21:23;4.60;;;1.43;;
31872;SDS011;22407;42.820;23.374;2023-08-07T11:23:48;4.38;;;1.40;;
31872;SDS011;22407;42.820;23.374;2023-08-07T11:26:14;4.90;;;1.30;;
31872;SDS011;22407;42.820;23.374;2023-08-07T11:28:39;4.40;;;1.40;;
31872;SDS011;22407;42.820;23.374;2023-08-07T11:31:05;11.57;;;5.70;;
31872;SDS011;22407;42.820;23.374;2023-08-07T11:33:31;7.82;;;3.63;;
31872;SDS011;22407;42.820;23.374;2023-08-07T11:35:56;4.60;;;1.50;;
31872;SDS011;22407;42.820;23.374;2023-08-07T11:38:29;4.63;;;1.50;;
31872;SDS011;22407;42.820;23.374;2023-08-07T11:40:56;4.80;;;1.83;;
31872;SDS011;22407;42.820;23.374;2023-08-07T11:43:21;5.63;;;1.60;;
31872;SDS011;22407;42.820;23.374;2023-08-07T11:45:46;4.50;;;1.50;;
31872;SDS011;22407;42.820;23.374;2023-08-07T11:48:12;7.10;;;1.67;;
31872;SDS011;22407;42.820;23.374;2023-08-07T11:50:37;4.30;;;1.47;;
31872;SDS011;22407;42.820;23.374;2023-08-07T11:53:03;4.60;;;1.40;;
31872;SDS011;22407;42.820;23.374;2023-08-07T11:55:28;4.87;;;1.50;;
31872;SDS011;22407;42.820;23.374;2023-08-07T11:57:54;5.27;;;1.60;;
31872;SDS011;22407;42.820;23.374;2023-08-07T12:00:20;4.83;;;1.43;;
31872;SDS011;22407;42.820;23.374;2023-08-07T12:02:45;5.50;;;1.40;;
31872;SDS011;22407;42.820;23.374;2023-08-07T12:05:10;4.70;;;1.60;;
31872;SDS011;22407;42.820;23.374;2023-08-07T12:07:36;5.40;;;1.60;;
31872;SDS011;22407;42.820;23.374;2023-08-07T12:10:03;5.28;;;1.50;;
31872;SDS011;22407;42.820;23.374;2023-08-07T12:12:32;4.25;;;1.40;;
31872;SDS011;22407;42.820;23.374;2023-08-07T12:14:57;7.47;;;1.88;;
31872;SDS011;22407;42.820;23.374;2023-08-07T12:17:22;4.80;;;1.60;;
31872;SDS011;22407;42.820;23.374;2023-08-07T12:19:47;5.27;;;1.50;;
31872;SDS011;22407;42.820;23.374;2023-08-07T12:22:15;5.40;;;1.50;;
31872;SDS011;22407;42.820;23.374;2023-08-07T12:24:44;5.30;;;1.63;;
31872;SDS011;22407;42.820;23.374;2023-08-07T12:27:10;5.03;;;1.47;;
31872;SDS011;22407;42.820;23.374;2023-08-07T12:29:35;4.63;;;1.50;;
31872;SDS011;22407;42.820;23.374;2023-08-07T12:32:00;4.90;;;1.50;;
31872;SDS011;22407;42.820;23.374;2023-08-07T12:34:27;4.40;;;1.60;;
31872;SDS011;22407;42.820;23.374;2023-08-07T12:36:53;4.70;;;1.73;;
31872;SDS011;22407;42.820;23.374;2023-08-07T12:39:18;5.07;;;1.50;;
31872;SDS011;22407;42.820;23.374;2023-08-07T12:41:43;5.10;;;1.57;;
31872;SDS011;22407;42.820;23.374;2023-08-07T12:44:08;5.20;;;1.70;;
31872;SDS011;22407;42.820;23.374;2023-08-07T12:46:34;5.50;;;1.80;;
31872;SDS011;22407;42.820;23.374;2023-08-07T12:48:59;5.47;;;1.80;;
31872;SDS011;22407;42.820;23.374;2023-08-07T12:51:24;5.20;;;1.60;;
31872;SDS011;22407;42.820;23.374;2023-08-07T12:53:49;5.20;;;1.60;;
31872;SDS011;22407;42.820;23.374;2023-08-07T12:56:16;5.20;;;1.70;;
31872;SDS011;22407;42.820;23.374;2023-08-07T12:58:41;4.93;;;1.60;;
31872;SDS011;22407;42.820;23.374;2023-08-07T13:01:07;4.90;;;1.80;;
31872;SDS011;22407;42.820;23.374;2023-08-07T13:03:32;4.80;;;1.70;;
31872;SDS011;22407;42.820;23.374;2023-08-07T13:05:57;4.50;;;1.60;;
31872;SDS011;22407;42.820;23.374;2023-08-07T13:08:23;6.40;;;1.70;;
31872;SDS011;22407;42.820;23.374;2023-08-07T13:10:48;5.03;;;1.57;;
31872;SDS011;22407;42.820;23.374;2023-08-07T13:13:13;5.10;;;1.53;;
31872;SDS011;22407;42.820;23.374;2023-08-07T13:15:39;4.47;;;1.50;;
31872;SDS011;22407;42.820;23.374;2023-08-07T13:18:04;5.00;;;1.80;;
31872;SDS011;22407;42.820;23.374;2023-08-07T13:20:29;4.60;;;1.70;;
31872;SDS011;22407;42.820;23.374;2023-08-07T13:22:58;4.95;;;1.52;;
31872;SDS011;22407;42.820;23.374;2023-08-07T13:25:24;4.43;;;1.53;;
31872;SDS011;22407;42.820;23.374;2023-08-07T13:27:49;4.88;;;1.50;;
31872;SDS011;22407;42.820;23.374;2023-08-07T13:30:14;4.90;;;1.60;;
31872;SDS011;22407;42.820;23.374;2023-08-07T13:32:39;4.70;;;1.70;;
31872;SDS011;22407;42.820;23.374;2023-08-07T13:35:05;5.00;;;1.70;;
31872;SDS011;22407;42.820;23.374;2023-08-07T13:37:30;4.70;;;1.50;;
31872;SDS011;22407;42.820;23.374;2023-08-07T13:39:57;5.10;;;1.70;;
31872;SDS011;22407;42.820;23.374;2023-08-07T13:42:25;4.80;;;1.80;;
31872;SDS011;22407;42.820;23.374;2023-08-07T13:44:52;5.10;;;1.70;;
31872;SDS011;22407;42.820;23.374;2023-08-07T13:47:17;4.83;;;1.80;;
31872;SDS011;22407;42.820;23.374;2023-08-07T13:49:43;5.53;;;1.90;;
31872;SDS011;22407;42.820;23.374;2023-08-07T13:52:08;4.97;;;2.00;;
31872;SDS011;22407;42.820;23.374;2023-08-07T13:54:33;5.60;;;2.00;;
31872;SDS011;22407;42.820;23.374;2023-08-07T13:56:58;5.20;;;2.00;;
31872;SDS011;22407;42.820;23.374;2023-08-07T13:59:24;4.80;;;1.90;;
31872;SDS011;22407;42.820;23.374;2023-08-07T14:01:49;4.87;;;1.90;;
31872;SDS011;22407;42.820;23.374;2023-08-07T14:04:15;5.17;;;1.60;;
31872;SDS011;22407;42.820;23.374;2023-08-07T14:06:41;5.50;;;1.70;;
31872;SDS011;22407;42.820;23.374;2023-08-07T14:09:08;4.95;;;1.90;;
31872;SDS011;22407;42.820;23.374;2023-08-07T14:11:34;4.60;;;1.77;;
31872;SDS011;22407;42.820;23.374;2023-08-07T14:14:00;5.13;;;1.60;;
31872;SDS011;22407;42.820;23.374;2023-08-07T14:16:25;4.60;;;1.70;;
31872;SDS011;22407;42.820;23.374;2023-08-07T14:18:50;4.97;;;1.87;;
31872;SDS011;22407;42.820;23.374;2023-08-07T14:21:16;6.43;;;2.10;;
31872;SDS011;22407;42.820;23.374;2023-08-07T14:23:41;4.90;;;1.70;;
31872;SDS011;22407;42.820;23.374;2023-08-07T14:26:07;5.50;;;1.70;;